sensor_id;sensor_type;location;lat;lon;timestamp;P1;durP1;ratioP1;P2;durP2;ratioP2
3311;SDS011;1668;49.648;8.570;2022-08-23T00:02:27;3.50;;;2.20;;
3311;SDS011;1668;49.648;8.570;2022-08-23T00:04:54;3.10;;;2.20;;
3311;SDS011;1668;49.648;8.570;2022-08-23T00:07:22;3.50;;;1.77;;
3311;SDS011;1668;49.648;8.570;2022-08-23T00:09:49;7.83;;;2.17;;
3311;SDS011;1668;49.648;8.570;2022-08-23T00:12:17;2.63;;;1.70;;
3311;SDS011;1668;49.648;8.570;2022-08-23T00:14:47;2.90;;;1.93;;
3311;SDS011;1668;49.648;8.570;2022-08-23T00:17:18;3.97;;;1.70;;
3311;SDS011;1668;49.648;8.570;2022-08-23T00:19:45;2.70;;;2.10;;
3311;SDS011;1668;49.648;8.570;2022-08-23T00:22:13;4.20;;;2.03;;
3311;SDS011;1668;49.648;8.570;2022-08-23T00:24:42;6.13;;;1.90;;
3311;SDS011;1668;49.648;8.570;2022-08-23T00:27:10;4.03;;;2.20;;
3311;SDS011;1668;49.648;8.570;2022-08-23T00:29:40;3.47;;;2.13;;
3311;SDS011;1668;49.648;8.570;2022-08-23T00:32:09;3.90;;;2.03;;
3311;SDS011;1668;49.648;8.570;2022-08-23T00:34:39;4.10;;;2.00;;
3311;SDS011;1668;49.648;8.570;2022-08-23T00:37:07;4.57;;;2.00;;
3311;SDS011;1668;49.648;8.570;2022-08-23T00:39:35;3.20;;;2.20;;
3311;SDS011;1668;49.648;8.570;2022-08-23T00:42:05;3.60;;;1.87;;
3311;SDS011;1668;49.648;8.570;2022-08-23T00:44:49;4.50;;;1.67;;
3311;SDS011;1668;49.648;8.570;2022-08-23T00:47:35;4.60;;;2.20;;
3311;SDS011;1668;49.648;8.570;2022-08-23T00:50:06;4.27;;;1.80;;
3311;SDS011;1668;49.648;8.570;2022-08-23T00:52:41;4.30;;;2.33;;
3311;SDS011;1668;49.648;8.570;2022-08-23T00:55:12;2.90;;;1.83;;
3311;SDS011;1668;49.648;8.570;2022-08-23T00:57:42;2.87;;;2.00;;
3311;SDS011;1668;49.648;8.570;2022-08-23T01:00:10;4.83;;;2.20;;
3311;SDS011;1668;49.648;8.570;2022-08-23T01:02:38;3.30;;;2.00;;
3311;SDS011;1668;49.648;8.570;2022-08-23T01:05:06;4.50;;;2.03;;
3311;SDS011;1668;49.648;8.570;2022-08-23T01:07:35;3.07;;;1.77;;
3311;SDS011;1668;49.648;8.570;2022-08-23T01:10:12;4.23;;;2.03;;
3311;SDS011;1668;49.648;8.570;2022-08-23T01:12:46;2.67;;;1.70;;
3311;SDS011;1668;49.648;8.570;2022-08-23T01:15:18;4.10;;;2.00;;
3311;SDS011;1668;49.648;8.570;2022-08-23T01:17:49;3.40;;;2.10;;
3311;SDS011;1668;49.648;8.570;2022-08-23T01:20:20;3.33;;;1.93;;
3311;SDS011;1668;49.648;8.570;2022-08-23T01:22:51;3.40;;;2.00;;
3311;SDS011;1668;49.648;8.570;2022-08-23T01:25:25;2.90;;;2.10;;
3311;SDS011;1668;49.648;8.570;2022-08-23T01:27:55;2.70;;;1.87;;
3311;SDS011;1668;49.648;8.570;2022-08-23T01:30:24;3.93;;;2.13;;
3311;SDS011;1668;49.648;8.570;2022-08-23T01:32:54;3.30;;;1.90;;
3311;SDS011;1668;49.648;8.570;2022-08-23T01:35:24;4.10;;;1.83;;
3311;SDS011;1668;49.648;8.570;2022-08-23T01:37:59;2.83;;;2.00;;
3311;SDS011;1668;49.648;8.570;2022-08-23T01:40:27;9.60;;;2.03;;
3311;SDS011;1668;49.648;8.570;2022-08-23T01:42:56;6.53;;;2.00;;
3311;SDS011;1668;49.648;8.570;2022-08-23T01:45:24;3.00;;;1.90;;
3311;SDS011;1668;49.648;8.570;2022-08-23T01:47:51;3.83;;;1.90;;
3311;SDS011;1668;49.648;8.570;2022-08-23T01:50:19;3.70;;;2.10;;
3311;SDS011;1668;49.648;8.570;2022-08-23T01:52:46;3.53;;;1.93;;
3311;SDS011;1668;49.648;8.570;2022-08-23T01:55:13;3.33;;;2.00;;
3311;SDS011;1668;49.648;8.570;2022-08-23T01:57:41;6.70;;;2.13;;
3311;SDS011;1668;49.648;8.570;2022-08-23T02:00:10;3.40;;;2.03;;
3311;SDS011;1668;49.648;8.570;2022-08-23T02:02:38;2.30;;;1.90;;
3311;SDS011;1668;49.648;8.570;2022-08-23T02:05:05;3.97;;;1.80;;
3311;SDS011;1668;49.648;8.570;2022-08-23T02:07:33;4.30;;;2.20;;
3311;SDS011;1668;49.648;8.570;2022-08-23T02:10:00;2.70;;;2.20;;
3311;SDS011;1668;49.648;8.570;2022-08-23T02:12:27;3.67;;;1.70;;
3311;SDS011;1668;49.648;8.570;2022-08-23T02:14:56;3.17;;;2.00;;
3311;SDS011;1668;49.648;8.570;2022-08-23T02:17:23;4.10;;;2.23;;
3311;SDS011;1668;49.648;8.570;2022-08-23T02:19:51;5.00;;;2.00;;
3311;SDS011;1668;49.648;8.570;2022-08-23T02:22:19;3.93;;;2.17;;
3311;SDS011;1668;49.648;8.570;2022-08-23T02:24:46;4.60;;;2.53;;
3311;SDS011;1668;49.648;8.570;2022-08-23T02:27:14;2.23;;;1.90;;
3311;SDS011;1668;49.648;8.570;2022-08-23T02:29:41;4.20;;;2.10;;
3311;SDS011;1668;49.648;8.570;2022-08-23T02:32:11;3.83;;;2.13;;
3311;SDS011;1668;49.648;8.570;2022-08-23T02:34:40;7.47;;;2.53;;
3311;SDS011;1668;49.648;8.570;2022-08-23T02:37:08;5.70;;;2.47;;
3311;SDS011;1668;49.648;8.570;2022-08-23T02:39:37;4.73;;;2.83;;
3311;SDS011;1668;49.648;8.570;2022-08-23T02:42:05;4.43;;;2.13;;
3311;SDS011;1668;49.648;8.570;2022-08-23T02:44:33;4.23;;;2.17;;
3311;SDS011;1668;49.648;8.570;2022-08-23T02:47:02;3.47;;;2.30;;
3311;SDS011;1668;49.648;8.570;2022-08-23T02:49:34;2.83;;;2.00;;
3311;SDS011;1668;49.648;8.570;2022-08-23T02:52:02;5.20;;;2.43;;
3311;SDS011;1668;49.648;8.570;2022-08-23T02:54:30;8.60;;;2.50;;
3311;SDS011;1668;49.648;8.570;2022-08-23T02:56:57;7.03;;;2.33;;
3311;SDS011;1668;49.648;8.570;2022-08-23T02:59:24;4.27;;;2.50;;
3311;SDS011;1668;49.648;8.570;2022-08-23T03:01:51;5.20;;;2.17;;
3311;SDS011;1668;49.648;8.570;2022-08-23T03:04:18;6.80;;;2.30;;
3311;SDS011;1668;49.648;8.570;2022-08-23T03:06:46;4.40;;;2.53;;
3311;SDS011;1668;49.648;8.570;2022-08-23T03:09:13;3.10;;;2.13;;
3311;SDS011;1668;49.648;8.570;2022-08-23T03:11:42;2.67;;;2.20;;
3311;SDS011;1668;49.648;8.570;2022-08-23T03:14:10;4.13;;;2.20;;
3311;SDS011;1668;49.648;8.570;2022-08-23T03:16:37;2.93;;;2.20;;
3311;SDS011;1668;49.648;8.570;2022-08-23T03:19:04;3.80;;;2.07;;
3311;SDS011;1668;49.648;8.570;2022-08-23T03:21:32;3.00;;;2.40;;
3311;SDS011;1668;49.648;8.570;2022-08-23T03:24:00;3.30;;;2.20;;
3311;SDS011;1668;49.648;8.570;2022-08-23T03:26:28;4.80;;;2.50;;
3311;SDS011;1668;49.648;8.570;2022-08-23T03:28:55;2.97;;;1.97;;
3311;SDS011;1668;49.648;8.570;2022-08-23T03:31:22;3.80;;;2.20;;
3311;SDS011;1668;49.648;8.570;2022-08-23T03:33:49;5.30;;;2.50;;
3311;SDS011;1668;49.648;8.570;2022-08-23T03:36:16;6.53;;;2.33;;
3311;SDS011;1668;49.648;8.570;2022-08-23T03:38:44;5.20;;;2.27;;
3311;SDS011;1668;49.648;8.570;2022-08-23T03:41:12;3.83;;;2.40;;
3311;SDS011;1668;49.648;8.570;2022-08-23T03:43:39;5.00;;;2.53;;
3311;SDS011;1668;49.648;8.570;2022-08-23T03:46:06;5.13;;;2.50;;
3311;SDS011;1668;49.648;8.570;2022-08-23T03:48:33;5.13;;;2.67;;
3311;SDS011;1668;49.648;8.570;2022-08-23T03:51:01;3.93;;;2.30;;
3311;SDS011;1668;49.648;8.570;2022-08-23T03:53:28;3.70;;;2.30;;
3311;SDS011;1668;49.648;8.570;2022-08-23T03:55:55;3.33;;;2.20;;
3311;SDS011;1668;49.648;8.570;2022-08-23T03:58:24;3.80;;;1.97;;
3311;SDS011;1668;49.648;8.570;2022-08-23T04:00:53;4.03;;;2.27;;
3311;SDS011;1668;49.648;8.570;2022-08-23T04:03:21;4.97;;;2.40;;
3311;SDS011;1668;49.648;8.570;2022-08-23T04:05:48;3.00;;;2.50;;
3311;SDS011;1668;49.648;8.570;2022-08-23T04:08:15;4.53;;;2.47;;
3311;SDS011;1668;49.648;8.570;2022-08-23T04:10:42;3.20;;;2.40;;
3311;SDS011;1668;49.648;8.570;2022-08-23T04:13:09;6.53;;;2.77;;
3311;SDS011;1668;49.648;8.570;2022-08-23T04:15:37;4.73;;;3.10;;
3311;SDS011;1668;49.648;8.570;2022-08-23T04:18:04;3.00;;;2.30;;
3311;SDS011;1668;49.648;8.570;2022-08-23T04:20:31;3.97;;;2.50;;
3311;SDS011;1668;49.648;8.570;2022-08-23T04:22:58;4.37;;;2.73;;
3311;SDS011;1668;49.648;8.570;2022-08-23T04:25:27;9.70;;;2.80;;
3311;SDS011;1668;49.648;8.570;2022-08-23T04:27:55;3.80;;;2.70;;
3311;SDS011;1668;49.648;8.570;2022-08-23T04:30:22;4.67;;;2.77;;
3311;SDS011;1668;49.648;8.570;2022-08-23T04:32:50;3.80;;;2.70;;
3311;SDS011;1668;49.648;8.570;2022-08-23T04:35:17;6.07;;;4.20;;
3311;SDS011;1668;49.648;8.570;2022-08-23T04:37:44;5.60;;;3.80;;
3311;SDS011;1668;49.648;8.570;2022-08-23T04:40:11;3.60;;;2.60;;
3311;SDS011;1668;49.648;8.570;2022-08-23T04:43:08;4.40;;;3.20;;
3311;SDS011;1668;49.648;8.570;2022-08-23T04:45:36;7.30;;;2.90;;
3311;SDS011;1668;49.648;8.570;2022-08-23T04:48:05;3.87;;;3.00;;
3311;SDS011;1668;49.648;8.570;2022-08-23T04:50:31;6.80;;;2.63;;
3311;SDS011;1668;49.648;8.570;2022-08-23T04:52:58;4.63;;;2.97;;
3311;SDS011;1668;49.648;8.570;2022-08-23T04:55:25;5.43;;;2.77;;
3311;SDS011;1668;49.648;8.570;2022-08-23T04:57:52;5.13;;;3.30;;
3311;SDS011;1668;49.648;8.570;2022-08-23T05:00:20;5.67;;;2.80;;
3311;SDS011;1668;49.648;8.570;2022-08-23T05:02:47;4.70;;;2.57;;
3311;SDS011;1668;49.648;8.570;2022-08-23T05:05:15;4.47;;;2.73;;
3311;SDS011;1668;49.648;8.570;2022-08-23T05:07:42;5.90;;;2.63;;
3311;SDS011;1668;49.648;8.570;2022-08-23T05:10:10;6.07;;;2.70;;
3311;SDS011;1668;49.648;8.570;2022-08-23T05:12:38;8.90;;;3.10;;
3311;SDS011;1668;49.648;8.570;2022-08-23T05:15:06;7.03;;;2.93;;
3311;SDS011;1668;49.648;8.570;2022-08-23T05:17:34;4.90;;;2.80;;
3311;SDS011;1668;49.648;8.570;2022-08-23T05:20:02;5.57;;;3.30;;
3311;SDS011;1668;49.648;8.570;2022-08-23T05:22:32;7.03;;;3.50;;
3311;SDS011;1668;49.648;8.570;2022-08-23T05:25:01;5.40;;;2.53;;
3311;SDS011;1668;49.648;8.570;2022-08-23T05:27:27;5.20;;;3.17;;
3311;SDS011;1668;49.648;8.570;2022-08-23T05:29:54;4.10;;;2.87;;
3311;SDS011;1668;49.648;8.570;2022-08-23T05:32:21;6.00;;;3.07;;
3311;SDS011;1668;49.648;8.570;2022-08-23T05:34:48;5.27;;;3.23;;
3311;SDS011;1668;49.648;8.570;2022-08-23T05:37:15;9.63;;;3.60;;
3311;SDS011;1668;49.648;8.570;2022-08-23T05:39:44;7.40;;;3.40;;
3311;SDS011;1668;49.648;8.570;2022-08-23T05:42:12;9.93;;;3.27;;
3311;SDS011;1668;49.648;8.570;2022-08-23T05:44:41;6.13;;;3.43;;
3311;SDS011;1668;49.648;8.570;2022-08-23T05:47:10;7.97;;;3.40;;
3311;SDS011;1668;49.648;8.570;2022-08-23T05:49:38;8.10;;;3.13;;
3311;SDS011;1668;49.648;8.570;2022-08-23T05:52:07;5.03;;;3.10;;
3311;SDS011;1668;49.648;8.570;2022-08-23T05:54:36;6.40;;;3.00;;
3311;SDS011;1668;49.648;8.570;2022-08-23T05:57:05;11.80;;;2.90;;
3311;SDS011;1668;49.648;8.570;2022-08-23T05:59:31;6.03;;;3.10;;
3311;SDS011;1668;49.648;8.570;2022-08-23T06:01:58;4.23;;;3.00;;
3311;SDS011;1668;49.648;8.570;2022-08-23T06:04:26;8.47;;;3.50;;
3311;SDS011;1668;49.648;8.570;2022-08-23T06:06:52;9.33;;;3.30;;
3311;SDS011;1668;49.648;8.570;2022-08-23T06:09:22;11.77;;;3.60;;
3311;SDS011;1668;49.648;8.570;2022-08-23T06:11:49;5.50;;;4.00;;
3311;SDS011;1668;49.648;8.570;2022-08-23T06:14:18;7.33;;;3.77;;
3311;SDS011;1668;49.648;8.570;2022-08-23T06:16:46;9.43;;;4.30;;
3311;SDS011;1668;49.648;8.570;2022-08-23T06:19:14;7.40;;;3.50;;
3311;SDS011;1668;49.648;8.570;2022-08-23T06:21:42;4.73;;;3.27;;
3311;SDS011;1668;49.648;8.570;2022-08-23T06:24:11;7.33;;;3.57;;
3311;SDS011;1668;49.648;8.570;2022-08-23T06:26:39;7.03;;;3.30;;
3311;SDS011;1668;49.648;8.570;2022-08-23T06:29:09;4.20;;;3.07;;
3311;SDS011;1668;49.648;8.570;2022-08-23T06:31:41;6.00;;;3.20;;
3311;SDS011;1668;49.648;8.570;2022-08-23T06:34:12;11.10;;;3.47;;
3311;SDS011;1668;49.648;8.570;2022-08-23T06:36:42;6.07;;;3.40;;
3311;SDS011;1668;49.648;8.570;2022-08-23T06:39:10;6.63;;;3.23;;
3311;SDS011;1668;49.648;8.570;2022-08-23T06:41:38;8.20;;;2.90;;
3311;SDS011;1668;49.648;8.570;2022-08-23T06:44:05;5.97;;;3.40;;
3311;SDS011;1668;49.648;8.570;2022-08-23T06:46:33;10.80;;;3.60;;
3311;SDS011;1668;49.648;8.570;2022-08-23T06:49:03;4.50;;;2.93;;
3311;SDS011;1668;49.648;8.570;2022-08-23T06:51:32;5.50;;;3.00;;
3311;SDS011;1668;49.648;8.570;2022-08-23T06:54:02;4.03;;;2.83;;
3311;SDS011;1668;49.648;8.570;2022-08-23T06:56:30;4.93;;;2.60;;
3311;SDS011;1668;49.648;8.570;2022-08-23T06:58:58;6.30;;;2.87;;
3311;SDS011;1668;49.648;8.570;2022-08-23T07:01:29;8.80;;;3.20;;
3311;SDS011;1668;49.648;8.570;2022-08-23T07:04:00;6.63;;;2.43;;
3311;SDS011;1668;49.648;8.570;2022-08-23T07:06:30;6.50;;;2.53;;
3311;SDS011;1668;49.648;8.570;2022-08-23T07:08:58;5.00;;;2.60;;
3311;SDS011;1668;49.648;8.570;2022-08-23T07:11:26;4.50;;;2.77;;
3311;SDS011;1668;49.648;8.570;2022-08-23T07:13:55;4.40;;;2.83;;
3311;SDS011;1668;49.648;8.570;2022-08-23T07:16:23;5.60;;;2.67;;
3311;SDS011;1668;49.648;8.570;2022-08-23T07:18:50;8.83;;;2.80;;
3311;SDS011;1668;49.648;8.570;2022-08-23T07:21:19;8.23;;;2.67;;
3311;SDS011;1668;49.648;8.570;2022-08-23T07:23:48;4.73;;;2.60;;
3311;SDS011;1668;49.648;8.570;2022-08-23T07:26:15;5.00;;;3.10;;
3311;SDS011;1668;49.648;8.570;2022-08-23T07:28:43;5.23;;;3.47;;
3311;SDS011;1668;49.648;8.570;2022-08-23T07:31:13;5.37;;;2.87;;
3311;SDS011;1668;49.648;8.570;2022-08-23T07:33:43;6.23;;;2.60;;
3311;SDS011;1668;49.648;8.570;2022-08-23T07:36:12;7.00;;;3.23;;
3311;SDS011;1668;49.648;8.570;2022-08-23T07:38:40;6.87;;;2.80;;
3311;SDS011;1668;49.648;8.570;2022-08-23T07:41:08;3.50;;;2.60;;
3311;SDS011;1668;49.648;8.570;2022-08-23T07:43:36;3.37;;;2.50;;
3311;SDS011;1668;49.648;8.570;2022-08-23T07:46:04;3.70;;;2.30;;
3311;SDS011;1668;49.648;8.570;2022-08-23T07:48:31;5.97;;;2.80;;
3311;SDS011;1668;49.648;8.570;2022-08-23T07:50:59;4.30;;;2.90;;
3311;SDS011;1668;49.648;8.570;2022-08-23T07:53:29;5.53;;;2.57;;
3311;SDS011;1668;49.648;8.570;2022-08-23T07:55:57;4.33;;;2.83;;
3311;SDS011;1668;49.648;8.570;2022-08-23T07:58:26;6.17;;;2.60;;
3311;SDS011;1668;49.648;8.570;2022-08-23T08:00:53;3.70;;;2.17;;
3311;SDS011;1668;49.648;8.570;2022-08-23T08:03:20;6.83;;;2.63;;
3311;SDS011;1668;49.648;8.570;2022-08-23T08:05:47;4.00;;;2.70;;
3311;SDS011;1668;49.648;8.570;2022-08-23T08:08:14;3.67;;;2.60;;
3311;SDS011;1668;49.648;8.570;2022-08-23T08:10:41;4.37;;;2.40;;
3311;SDS011;1668;49.648;8.570;2022-08-23T08:13:08;5.30;;;2.80;;
3311;SDS011;1668;49.648;8.570;2022-08-23T08:15:40;5.20;;;2.70;;
3311;SDS011;1668;49.648;8.570;2022-08-23T08:18:07;13.93;;;2.80;;
3311;SDS011;1668;49.648;8.570;2022-08-23T08:20:34;5.33;;;3.07;;
3311;SDS011;1668;49.648;8.570;2022-08-23T08:23:01;37.27;;;4.43;;
3311;SDS011;1668;49.648;8.570;2022-08-23T08:25:29;19.50;;;3.90;;
3311;SDS011;1668;49.648;8.570;2022-08-23T08:27:58;17.93;;;4.10;;
3311;SDS011;1668;49.648;8.570;2022-08-23T08:30:25;12.43;;;2.90;;
3311;SDS011;1668;49.648;8.570;2022-08-23T08:32:54;4.70;;;2.47;;
3311;SDS011;1668;49.648;8.570;2022-08-23T08:35:21;4.73;;;2.70;;
3311;SDS011;1668;49.648;8.570;2022-08-23T08:37:48;4.30;;;2.73;;
3311;SDS011;1668;49.648;8.570;2022-08-23T08:40:16;4.77;;;2.97;;
3311;SDS011;1668;49.648;8.570;2022-08-23T08:42:53;4.23;;;2.70;;
3311;SDS011;1668;49.648;8.570;2022-08-23T08:45:40;4.80;;;2.83;;
3311;SDS011;1668;49.648;8.570;2022-08-23T08:48:18;5.00;;;2.63;;
3311;SDS011;1668;49.648;8.570;2022-08-23T08:50:50;4.00;;;2.43;;
3311;SDS011;1668;49.648;8.570;2022-08-23T08:53:21;4.47;;;2.80;;
3311;SDS011;1668;49.648;8.570;2022-08-23T08:55:54;6.90;;;2.97;;
3311;SDS011;1668;49.648;8.570;2022-08-23T08:58:26;5.80;;;2.90;;
3311;SDS011;1668;49.648;8.570;2022-08-23T09:00:58;3.60;;;2.80;;
3311;SDS011;1668;49.648;8.570;2022-08-23T09:03:28;3.70;;;2.40;;
3311;SDS011;1668;49.648;8.570;2022-08-23T09:06:00;4.37;;;2.90;;
3311;SDS011;1668;49.648;8.570;2022-08-23T09:08:42;3.33;;;2.80;;
3311;SDS011;1668;49.648;8.570;2022-08-23T09:11:20;4.00;;;2.70;;
3311;SDS011;1668;49.648;8.570;2022-08-23T09:14:04;4.93;;;3.27;;
3311;SDS011;1668;49.648;8.570;2022-08-23T09:16:47;4.70;;;3.20;;
3311;SDS011;1668;49.648;8.570;2022-08-23T09:19:18;4.43;;;2.83;;
3311;SDS011;1668;49.648;8.570;2022-08-23T09:21:55;10.77;;;2.97;;
3311;SDS011;1668;49.648;8.570;2022-08-23T09:24:24;6.57;;;3.33;;
3311;SDS011;1668;49.648;8.570;2022-08-23T09:26:52;5.27;;;3.27;;
3311;SDS011;1668;49.648;8.570;2022-08-23T09:29:21;6.53;;;3.20;;
3311;SDS011;1668;49.648;8.570;2022-08-23T09:31:51;6.37;;;3.40;;
3311;SDS011;1668;49.648;8.570;2022-08-23T09:34:22;4.37;;;2.97;;
3311;SDS011;1668;49.648;8.570;2022-08-23T09:37:08;6.00;;;3.27;;
3311;SDS011;1668;49.648;8.570;2022-08-23T09:39:39;7.50;;;2.97;;
3311;SDS011;1668;49.648;8.570;2022-08-23T09:42:08;4.37;;;3.27;;
3311;SDS011;1668;49.648;8.570;2022-08-23T09:44:51;10.10;;;2.90;;
3311;SDS011;1668;49.648;8.570;2022-08-23T09:47:20;5.60;;;2.80;;
3311;SDS011;1668;49.648;8.570;2022-08-23T09:49:58;4.77;;;2.80;;
3311;SDS011;1668;49.648;8.570;2022-08-23T09:52:36;7.10;;;3.03;;
3311;SDS011;1668;49.648;8.570;2022-08-23T09:55:05;10.90;;;3.10;;
3311;SDS011;1668;49.648;8.570;2022-08-23T09:57:35;5.80;;;2.90;;
3311;SDS011;1668;49.648;8.570;2022-08-23T10:00:17;4.07;;;2.83;;
3311;SDS011;1668;49.648;8.570;2022-08-23T10:02:49;4.93;;;3.27;;
3311;SDS011;1668;49.648;8.570;2022-08-23T10:05:29;5.23;;;2.93;;
3311;SDS011;1668;49.648;8.570;2022-08-23T10:08:02;3.67;;;2.80;;
3311;SDS011;1668;49.648;8.570;2022-08-23T10:10:31;8.07;;;3.40;;
3311;SDS011;1668;49.648;8.570;2022-08-23T10:13:08;8.97;;;3.33;;
3311;SDS011;1668;49.648;8.570;2022-08-23T10:15:39;6.80;;;2.70;;
3311;SDS011;1668;49.648;8.570;2022-08-23T10:18:18;5.50;;;2.97;;
3311;SDS011;1668;49.648;8.570;2022-08-23T10:20:56;6.97;;;2.80;;
3311;SDS011;1668;49.648;8.570;2022-08-23T10:23:31;5.47;;;3.00;;
3311;SDS011;1668;49.648;8.570;2022-08-23T10:26:06;5.37;;;2.80;;
3311;SDS011;1668;49.648;8.570;2022-08-23T10:28:44;2.93;;;2.50;;
3311;SDS011;1668;49.648;8.570;2022-08-23T10:31:33;5.80;;;2.87;;
3311;SDS011;1668;49.648;8.570;2022-08-23T10:34:15;5.00;;;2.90;;
3311;SDS011;1668;49.648;8.570;2022-08-23T10:36:59;6.07;;;3.00;;
3311;SDS011;1668;49.648;8.570;2022-08-23T10:39:39;3.07;;;2.40;;
3311;SDS011;1668;49.648;8.570;2022-08-23T10:42:13;4.80;;;2.63;;
3311;SDS011;1668;49.648;8.570;2022-08-23T10:44:52;6.10;;;2.67;;
3311;SDS011;1668;49.648;8.570;2022-08-23T10:47:26;6.23;;;2.90;;
3311;SDS011;1668;49.648;8.570;2022-08-23T10:49:59;4.27;;;2.60;;
3311;SDS011;1668;49.648;8.570;2022-08-23T10:52:35;4.50;;;2.23;;
3311;SDS011;1668;49.648;8.570;2022-08-23T10:55:06;5.90;;;3.17;;
3311;SDS011;1668;49.648;8.570;2022-08-23T10:57:48;4.57;;;2.43;;
3311;SDS011;1668;49.648;8.570;2022-08-23T11:00:18;6.47;;;2.50;;
3311;SDS011;1668;49.648;8.570;2022-08-23T11:02:48;6.93;;;2.33;;
3311;SDS011;1668;49.648;8.570;2022-08-23T11:05:23;4.80;;;2.33;;
3311;SDS011;1668;49.648;8.570;2022-08-23T11:07:59;7.07;;;2.47;;
3311;SDS011;1668;49.648;8.570;2022-08-23T11:10:30;4.73;;;2.67;;
3311;SDS011;1668;49.648;8.570;2022-08-23T11:13:00;5.43;;;2.80;;
3311;SDS011;1668;49.648;8.570;2022-08-23T11:15:36;3.83;;;2.90;;
3311;SDS011;1668;49.648;8.570;2022-08-23T11:18:08;6.53;;;2.90;;
3311;SDS011;1668;49.648;8.570;2022-08-23T11:20:56;7.13;;;2.63;;
3311;SDS011;1668;49.648;8.570;2022-08-23T11:23:41;4.27;;;2.50;;
3311;SDS011;1668;49.648;8.570;2022-08-23T11:29:26;4.27;;;2.50;;
3311;SDS011;1668;49.648;8.570;2022-08-23T11:31:57;5.10;;;2.50;;
3311;SDS011;1668;49.648;8.570;2022-08-23T11:34:28;3.80;;;2.50;;
3311;SDS011;1668;49.648;8.570;2022-08-23T11:40:02;3.53;;;2.60;;
3311;SDS011;1668;49.648;8.570;2022-08-23T11:42:44;5.03;;;2.50;;
3311;SDS011;1668;49.648;8.570;2022-08-23T11:45:21;4.03;;;2.50;;
3311;SDS011;1668;49.648;8.570;2022-08-23T11:47:51;5.17;;;2.90;;
3311;SDS011;1668;49.648;8.570;2022-08-23T11:50:32;3.77;;;2.73;;
3311;SDS011;1668;49.648;8.570;2022-08-23T11:53:10;3.90;;;2.57;;
3311;SDS011;1668;49.648;8.570;2022-08-23T11:55:59;4.70;;;2.70;;
3311;SDS011;1668;49.648;8.570;2022-08-23T11:59:01;5.43;;;2.30;;
3311;SDS011;1668;49.648;8.570;2022-08-23T12:01:38;3.47;;;2.50;;
3311;SDS011;1668;49.648;8.570;2022-08-23T12:04:08;3.40;;;2.27;;
3311;SDS011;1668;49.648;8.570;2022-08-23T12:06:43;4.17;;;2.43;;
3311;SDS011;1668;49.648;8.570;2022-08-23T12:09:13;3.43;;;3.00;;
3311;SDS011;1668;49.648;8.570;2022-08-23T12:12:13;3.90;;;2.83;;
3311;SDS011;1668;49.648;8.570;2022-08-23T12:14:52;3.93;;;2.30;;
3311;SDS011;1668;49.648;8.570;2022-08-23T12:20:26;6.90;;;2.40;;
3311;SDS011;1668;49.648;8.570;2022-08-23T12:22:59;3.10;;;2.70;;
3311;SDS011;1668;49.648;8.570;2022-08-23T12:25:34;4.10;;;2.60;;
3311;SDS011;1668;49.648;8.570;2022-08-23T12:28:05;3.57;;;2.47;;
3311;SDS011;1668;49.648;8.570;2022-08-23T12:30:55;4.13;;;2.80;;
3311;SDS011;1668;49.648;8.570;2022-08-23T12:33:28;5.73;;;2.20;;
3311;SDS011;1668;49.648;8.570;2022-08-23T12:36:07;3.33;;;2.50;;
3311;SDS011;1668;49.648;8.570;2022-08-23T12:38:40;5.83;;;2.80;;
3311;SDS011;1668;49.648;8.570;2022-08-23T12:41:18;3.43;;;2.57;;
3311;SDS011;1668;49.648;8.570;2022-08-23T12:43:59;4.73;;;2.50;;
3311;SDS011;1668;49.648;8.570;2022-08-23T12:46:31;3.43;;;2.43;;
3311;SDS011;1668;49.648;8.570;2022-08-23T12:49:00;3.57;;;2.47;;
3311;SDS011;1668;49.648;8.570;2022-08-23T12:51:28;4.33;;;2.33;;
3311;SDS011;1668;49.648;8.570;2022-08-23T12:53:55;3.03;;;2.13;;
3311;SDS011;1668;49.648;8.570;2022-08-23T12:56:36;3.77;;;2.50;;
3311;SDS011;1668;49.648;8.570;2022-08-23T12:59:05;6.50;;;2.40;;
3311;SDS011;1668;49.648;8.570;2022-08-23T13:01:39;4.67;;;2.50;;
3311;SDS011;1668;49.648;8.570;2022-08-23T13:04:07;5.80;;;2.40;;
3311;SDS011;1668;49.648;8.570;2022-08-23T13:06:38;3.53;;;2.43;;
3311;SDS011;1668;49.648;8.570;2022-08-23T13:09:11;4.73;;;2.83;;
3311;SDS011;1668;49.648;8.570;2022-08-23T13:11:42;4.97;;;2.77;;
3311;SDS011;1668;49.648;8.570;2022-08-23T13:14:25;7.13;;;2.43;;
3311;SDS011;1668;49.648;8.570;2022-08-23T13:16:53;6.10;;;2.87;;
3311;SDS011;1668;49.648;8.570;2022-08-23T13:19:23;2.40;;;2.10;;
3311;SDS011;1668;49.648;8.570;2022-08-23T13:24:40;4.00;;;2.47;;
3311;SDS011;1668;49.648;8.570;2022-08-23T13:27:10;2.97;;;2.30;;
3311;SDS011;1668;49.648;8.570;2022-08-23T13:29:54;4.20;;;2.60;;
3311;SDS011;1668;49.648;8.570;2022-08-23T13:32:30;4.13;;;2.17;;
3311;SDS011;1668;49.648;8.570;2022-08-23T13:37:58;5.73;;;2.33;;
3311;SDS011;1668;49.648;8.570;2022-08-23T13:40:28;5.47;;;2.40;;
3311;SDS011;1668;49.648;8.570;2022-08-23T13:42:58;3.60;;;2.30;;
3311;SDS011;1668;49.648;8.570;2022-08-23T13:45:30;4.00;;;2.27;;
3311;SDS011;1668;49.648;8.570;2022-08-23T13:48:00;3.07;;;2.17;;
3311;SDS011;1668;49.648;8.570;2022-08-23T13:50:34;3.70;;;2.30;;
3311;SDS011;1668;49.648;8.570;2022-08-23T13:53:02;3.40;;;2.30;;
3311;SDS011;1668;49.648;8.570;2022-08-23T13:55:30;3.87;;;2.30;;
3311;SDS011;1668;49.648;8.570;2022-08-23T13:57:59;2.53;;;2.00;;
3311;SDS011;1668;49.648;8.570;2022-08-23T14:00:26;5.77;;;2.23;;
3311;SDS011;1668;49.648;8.570;2022-08-23T14:02:54;5.33;;;2.40;;
3311;SDS011;1668;49.648;8.570;2022-08-23T14:05:21;3.23;;;1.97;;
3311;SDS011;1668;49.648;8.570;2022-08-23T14:07:49;3.30;;;2.00;;
3311;SDS011;1668;49.648;8.570;2022-08-23T14:10:17;3.40;;;2.17;;
3311;SDS011;1668;49.648;8.570;2022-08-23T14:12:46;3.57;;;2.00;;
3311;SDS011;1668;49.648;8.570;2022-08-23T14:15:15;3.40;;;2.37;;
3311;SDS011;1668;49.648;8.570;2022-08-23T14:17:44;3.33;;;2.50;;
3311;SDS011;1668;49.648;8.570;2022-08-23T14:20:16;3.10;;;2.10;;
3311;SDS011;1668;49.648;8.570;2022-08-23T14:22:45;4.60;;;2.47;;
3311;SDS011;1668;49.648;8.570;2022-08-23T14:25:12;2.13;;;1.87;;
3311;SDS011;1668;49.648;8.570;2022-08-23T14:27:40;3.03;;;2.40;;
3311;SDS011;1668;49.648;8.570;2022-08-23T14:30:23;4.33;;;2.13;;
3311;SDS011;1668;49.648;8.570;2022-08-23T14:32:52;3.50;;;2.50;;
3311;SDS011;1668;49.648;8.570;2022-08-23T14:35:20;3.50;;;2.30;;
3311;SDS011;1668;49.648;8.570;2022-08-23T14:37:47;2.83;;;2.07;;
3311;SDS011;1668;49.648;8.570;2022-08-23T14:40:14;4.30;;;2.23;;
3311;SDS011;1668;49.648;8.570;2022-08-23T14:42:41;2.67;;;2.10;;
3311;SDS011;1668;49.648;8.570;2022-08-23T14:45:09;3.43;;;2.37;;
3311;SDS011;1668;49.648;8.570;2022-08-23T14:47:37;2.73;;;2.20;;
3311;SDS011;1668;49.648;8.570;2022-08-23T14:50:04;4.33;;;2.40;;
3311;SDS011;1668;49.648;8.570;2022-08-23T14:52:36;3.30;;;2.30;;
3311;SDS011;1668;49.648;8.570;2022-08-23T14:55:04;3.60;;;2.20;;
3311;SDS011;1668;49.648;8.570;2022-08-23T14:57:32;4.03;;;2.43;;
3311;SDS011;1668;49.648;8.570;2022-08-23T14:59:59;3.90;;;2.37;;
3311;SDS011;1668;49.648;8.570;2022-08-23T15:02:26;2.50;;;1.97;;
3311;SDS011;1668;49.648;8.570;2022-08-23T15:04:54;4.60;;;2.50;;
3311;SDS011;1668;49.648;8.570;2022-08-23T15:07:21;3.13;;;2.50;;
3311;SDS011;1668;49.648;8.570;2022-08-23T15:09:50;2.20;;;1.63;;
3311;SDS011;1668;49.648;8.570;2022-08-23T15:12:19;3.20;;;2.20;;
3311;SDS011;1668;49.648;8.570;2022-08-23T15:14:47;6.83;;;2.27;;
3311;SDS011;1668;49.648;8.570;2022-08-23T15:17:14;4.30;;;2.40;;
3311;SDS011;1668;49.648;8.570;2022-08-23T15:19:41;5.83;;;2.57;;
3311;SDS011;1668;49.648;8.570;2022-08-23T15:22:08;3.47;;;2.33;;
3311;SDS011;1668;49.648;8.570;2022-08-23T15:24:35;4.03;;;2.23;;
3311;SDS011;1668;49.648;8.570;2022-08-23T15:27:05;3.70;;;2.20;;
3311;SDS011;1668;49.648;8.570;2022-08-23T15:29:34;3.27;;;2.13;;
3311;SDS011;1668;49.648;8.570;2022-08-23T15:32:01;2.27;;;1.90;;
3311;SDS011;1668;49.648;8.570;2022-08-23T15:34:28;4.83;;;2.53;;
3311;SDS011;1668;49.648;8.570;2022-08-23T15:36:55;2.50;;;2.20;;
3311;SDS011;1668;49.648;8.570;2022-08-23T15:39:22;5.87;;;2.00;;
3311;SDS011;1668;49.648;8.570;2022-08-23T15:41:49;5.13;;;1.93;;
3311;SDS011;1668;49.648;8.570;2022-08-23T15:44:17;3.07;;;1.90;;
3311;SDS011;1668;49.648;8.570;2022-08-23T15:46:45;2.07;;;1.90;;
3311;SDS011;1668;49.648;8.570;2022-08-23T15:49:14;4.80;;;2.27;;
3311;SDS011;1668;49.648;8.570;2022-08-23T15:51:42;3.30;;;2.07;;